Time;durP1;ratioP1;P1;durP2;ratioP2;P2;SDS_P1;SDS_P2;PMS_P1;PMS_P2;Temp;Humidity;BMP_temperature;BMP_pressure;BME280_temperature;BME280_humidity;BME280_pressure;Samples;Min_cycle;Max_cycle;Signal;HPM_P1;HPM_P2
2023/12/01 00:00:39;;;;;;;52.20;25.53;;;1.40;99.90;;;;;;5064196;28;20293;-57
2023/12/01 00:03:05;;;;;;;48.90;25.60;;;1.40;99.90;;;;;;5064331;28;20975;-58
2023/12/01 00:05:31;;;;;;;44.83;23.50;;;1.40;99.90;;;;;;5064652;28;20503;-59
2023/12/01 00:07:56;;;;;;;47.13;24.50;;;1.40;99.90;;;;;;5062892;28;20191;-60
2023/12/01 00:10:22;;;;;;;50.63;25.47;;;1.40;99.90;;;;;;5065687;28;20224;-58
2023/12/01 00:12:48;;;;;;;45.80;22.13;;;1.40;99.90;;;;;;5062120;28;20199;-61
2023/12/01 00:15:13;;;;;;;49.20;25.87;;;1.40;99.90;;;;;;5063522;28;20582;-59
2023/12/01 00:17:39;;;;;;;47.17;23.73;;;1.40;99.90;;;;;;5065466;28;20684;-58
2023/12/01 00:20:05;;;;;;;42.10;21.73;;;1.40;99.90;;;;;;5064116;28;20187;-58
2023/12/01 00:22:31;;;;;;;37.47;21.40;;;1.40;99.90;;;;;;5062745;28;20252;-58
2023/12/01 00:24:57;;;;;;;40.40;21.60;;;1.40;99.90;;;;;;5064692;28;20836;-59
2023/12/01 00:27:22;;;;;;;43.77;23.40;;;1.40;99.90;;;;;;5063357;28;20203;-58
2023/12/01 00:29:48;;;;;;;48.70;23.70;;;1.50;99.90;;;;;;5063829;28;20180;-58
2023/12/01 00:32:13;;;;;;;41.80;22.30;;;1.40;99.90;;;;;;5065553;28;20185;-59
2023/12/01 00:34:39;;;;;;;43.03;22.47;;;1.40;99.90;;;;;;5061219;28;20229;-59
2023/12/01 00:37:33;;;;;;;47.47;23.60;;;1.40;99.90;;;;;;5065588;28;20182;-59
2023/12/01 00:39:58;;;;;;;56.57;25.10;;;1.40;99.90;;;;;;5064691;28;20182;-58
2023/12/01 00:42:25;;;;;;;43.53;24.13;;;1.40;99.90;;;;;;5065133;28;20427;-59
2023/12/01 00:44:51;;;;;;;51.20;27.40;;;1.40;99.90;;;;;;5065781;28;20167;-58
2023/12/01 00:47:16;;;;;;;51.37;25.70;;;1.40;99.90;;;;;;5066253;28;21026;-58
2023/12/01 00:49:42;;;;;;;58.30;26.67;;;1.40;99.90;;;;;;5061637;28;20539;-57
2023/12/01 00:52:07;;;;;;;47.93;25.77;;;1.40;99.90;;;;;;5066483;28;20186;-58
2023/12/01 00:54:33;;;;;;;45.37;24.30;;;1.40;99.90;;;;;;5065104;28;20679;-58
2023/12/01 00:56:59;;;;;;;50.30;25.17;;;1.40;99.90;;;;;;5068925;28;20218;-59
2023/12/01 00:59:24;;;;;;;46.53;24.03;;;1.40;99.90;;;;;;5068615;28;20279;-59
2023/12/01 01:01:50;;;;;;;51.80;25.30;;;1.40;99.90;;;;;;5066300;28;20180;-59
2023/12/01 01:04:16;;;;;;;45.10;23.47;;;1.40;99.90;;;;;;5068457;28;20251;-58
2023/12/01 01:06:41;;;;;;;47.80;24.47;;;1.40;99.90;;;;;;5069377;28;20193;-59
2023/12/01 01:09:08;;;;;;;44.50;23.90;;;1.40;99.90;;;;;;5067374;28;20175;-58
2023/12/01 01:11:34;;;;;;;48.57;23.73;;;1.40;99.90;;;;;;5064022;28;20210;-58
2023/12/01 01:14:00;;;;;;;52.53;24.30;;;1.40;99.90;;;;;;5069440;28;20433;-59
2023/12/01 01:16:26;;;;;;;39.27;21.10;;;1.40;99.90;;;;;;5068406;28;20875;-58
2023/12/01 01:18:51;;;;;;;36.93;20.63;;;1.40;99.90;;;;;;5064191;28;20683;-59
2023/12/01 01:21:17;;;;;;;39.40;21.00;;;1.40;99.90;;;;;;5068438;28;20180;-58
2023/12/01 01:23:42;;;;;;;37.97;20.50;;;1.40;99.90;;;;;;5066774;28;20205;-59
2023/12/01 01:26:08;;;;;;;39.37;20.87;;;1.40;99.90;;;;;;5068688;28;20169;-59
2023/12/01 01:28:34;;;;;;;41.20;20.90;;;1.40;99.90;;;;;;5068046;28;20182;-58
2023/12/01 01:30:59;;;;;;;37.13;19.60;;;1.40;99.90;;;;;;5066500;28;20238;-59
2023/12/01 01:33:25;;;;;;;40.77;20.93;;;1.40;99.90;;;;;;5062367;28;20739;-58
2023/12/01 01:35:50;;;;;;;32.20;19.77;;;1.40;99.90;;;;;;5063476;28;20183;-58
2023/12/01 01:38:16;;;;;;;38.00;19.80;;;1.50;99.90;;;;;;5058305;28;20547;-59
2023/12/01 01:40:42;;;;;;;35.37;18.73;;;1.50;99.90;;;;;;5065832;28;20670;-59
2023/12/01 01:43:07;;;;;;;37.47;20.10;;;1.50;99.90;;;;;;5064468;28;20222;-59
2023/12/01 01:45:33;;;;;;;35.93;18.40;;;1.40;99.90;;;;;;5064242;28;20442;-58
2023/12/01 01:47:59;;;;;;;35.47;19.60;;;1.50;99.90;;;;;;5075242;28;20189;-58
2023/12/01 01:50:25;;;;;;;36.60;19.10;;;1.50;99.90;;;;;;5067493;28;20654;-58
2023/12/01 01:52:54;;;;;;;32.77;17.63;;;1.50;99.90;;;;;;5066302;28;20464;-59
2023/12/01 01:55:19;;;;;;;35.10;18.00;;;1.50;99.90;;;;;;5065661;28;20436;-58
2023/12/01 01:57:47;;;;;;;33.00;16.83;;;1.50;99.90;;;;;;5060858;28;20417;-59
2023/12/01 02:00:16;;;;;;;33.20;18.67;;;1.50;99.90;;;;;;5068084;28;20185;-58
2023/12/01 02:02:43;;;;;;;31.80;16.87;;;1.50;99.90;;;;;;5064302;28;20508;-59
2023/12/01 02:05:13;;;;;;;30.03;16.53;;;1.50;99.90;;;;;;5064111;28;20431;-59
2023/12/01 02:07:39;;;;;;;30.47;16.40;;;1.50;99.90;;;;;;5066504;28;20473;-59
2023/12/01 02:10:06;;;;;;;31.87;16.87;;;1.50;99.90;;;;;;5064705;28;20458;-59
2023/12/01 02:12:32;;;;;;;29.40;17.63;;;1.50;99.90;;;;;;5062644;28;20467;-58
2023/12/01 02:14:57;;;;;;;32.67;18.13;;;1.50;99.90;;;;;;5069258;28;20421;-59
2023/12/01 02:17:23;;;;;;;33.83;17.40;;;1.50;99.90;;;;;;5067230;28;20190;-58
2023/12/01 02:19:51;;;;;;;35.77;18.90;;;1.50;99.90;;;;;;5069688;28;20615;-59
2023/12/01 02:22:17;;;;;;;34.17;17.50;;;1.50;99.90;;;;;;5066835;28;20205;-58
2023/12/01 02:24:43;;;;;;;34.67;17.10;;;1.50;99.90;;;;;;5068480;28;20923;-58
2023/12/01 02:27:09;;;;;;;33.03;18.00;;;1.50;99.90;;;;;;5060943;28;20426;-59
2023/12/01 02:29:34;;;;;;;32.30;17.20;;;1.50;99.90;;;;;;5063354;28;20174;-58
2023/12/01 02:32:00;;;;;;;33.47;18.00;;;1.50;99.90;;;;;;5059109;28;21006;-59
2023/12/01 02:34:25;;;;;;;30.00;17.20;;;1.50;99.90;;;;;;5059801;28;20182;-58
2023/12/01 02:36:53;;;;;;;31.67;17.27;;;1.50;99.90;;;;;;5061712;28;20186;-58
2023/12/01 02:39:19;;;;;;;29.23;16.27;;;1.50;99.90;;;;;;5068010;28;20232;-57
2023/12/01 02:41:45;;;;;;;32.57;17.60;;;1.50;99.90;;;;;;5061392;28;20828;-57
2023/12/01 02:44:10;;;;;;;28.47;16.53;;;1.50;99.90;;;;;;5059072;28;20452;-58
2023/12/01 02:46:36;;;;;;;33.23;17.73;;;1.50;99.90;;;;;;5066282;28;20437;-58
2023/12/01 02:49:01;;;;;;;31.37;17.13;;;1.50;99.90;;;;;;5064049;28;20186;-59
2023/12/01 02:51:27;;;;;;;29.53;15.90;;;1.50;99.90;;;;;;5062715;28;20764;-58
2023/12/01 02:53:52;;;;;;;31.63;16.23;;;1.50;99.90;;;;;;5064679;28;20199;-58
2023/12/01 02:56:18;;;;;;;29.33;16.50;;;1.50;99.90;;;;;;5066218;28;20245;-58
2023/12/01 02:58:44;;;;;;;27.17;15.43;;;1.50;99.90;;;;;;5066330;28;20178;-58
2023/12/01 03:01:09;;;;;;;25.10;13.80;;;1.50;99.90;;;;;;5065118;28;20628;-58
2023/12/01 03:03:35;;;;;;;25.77;13.53;;;1.50;99.90;;;;;;5064210;28;20784;-57
2023/12/01 03:06:00;;;;;;;23.03;12.80;;;1.50;99.90;;;;;;5065148;28;20189;-58
2023/12/01 03:08:26;;;;;;;20.87;12.30;;;1.50;99.90;;;;;;5059578;28;20676;-58
2023/12/01 03:10:53;;;;;;;24.10;12.40;;;1.50;99.90;;;;;;5066955;28;20216;-58
2023/12/01 03:13:19;;;;;;;26.80;14.07;;;1.50;99.90;;;;;;5062162;28;20692;-58
2023/12/01 03:15:44;;;;;;;23.50;13.03;;;1.50;99.90;;;;;;5066560;28;20415;-58
2023/12/01 03:18:10;;;;;;;21.17;11.73;;;1.50;99.90;;;;;;5062317;28;20691;-58
2023/12/01 03:20:36;;;;;;;26.50;14.03;;;1.50;99.90;;;;;;5064888;28;20182;-58
2023/12/01 03:23:01;;;;;;;28.63;14.90;;;1.50;99.90;;;;;;5057858;28;20267;-57
2023/12/01 03:25:27;;;;;;;27.13;15.03;;;1.50;99.90;;;;;;5066063;28;20616;-58
2023/12/01 03:27:52;;;;;;;26.67;14.80;;;1.50;99.90;;;;;;5064307;28;20201;-58
2023/12/01 03:30:19;;;;;;;25.00;12.87;;;1.50;99.90;;;;;;5058624;28;20731;-58
2023/12/01 03:32:46;;;;;;;20.97;12.63;;;1.50;99.90;;;;;;5063684;28;20300;-56
2023/12/01 03:35:13;;;;;;;23.20;12.53;;;1.50;99.90;;;;;;5061053;28;20437;-58
2023/12/01 03:37:39;;;;;;;23.73;13.60;;;1.50;99.90;;;;;;5064907;28;21043;-58
2023/12/01 03:40:12;;;;;;;24.03;13.70;;;1.50;99.90;;;;;;5065384;28;20416;-57
2023/12/01 03:42:47;;;;;;;22.87;13.00;;;1.50;99.90;;;;;;5059587;28;20316;-58
2023/12/01 03:45:14;;;;;;;21.30;13.10;;;1.50;99.90;;;;;;5066868;28;20450;-58
2023/12/01 03:47:41;;;;;;;25.67;12.80;;;1.60;99.90;;;;;;5065088;28;20508;-58
2023/12/01 03:50:13;;;;;;;23.73;13.37;;;1.50;99.90;;;;;;5067899;28;20463;-58
2023/12/01 03:52:43;;;;;;;26.53;13.40;;;1.50;99.90;;;;;;5063762;28;20998;-58
2023/12/01 03:55:10;;;;;;;26.23;12.70;;;1.50;99.90;;;;;;5066141;28;20504;-59
2023/12/01 03:57:37;;;;;;;25.40;13.70;;;1.50;99.90;;;;;;5065600;28;20417;-58
2023/12/01 04:00:08;;;;;;;25.07;13.83;;;1.50;99.90;;;;;;5059820;28;20546;-58
2023/12/01 04:02:45;;;;;;;27.90;14.07;;;1.50;99.90;;;;;;5066484;28;20424;-58
2023/12/01 04:05:18;;;;;;;27.43;13.73;;;1.50;99.90;;;;;;5060926;28;20416;-58
2023/12/01 04:07:45;;;;;;;26.60;13.83;;;1.50;99.90;;;;;;5065759;28;20438;-59
2023/12/01 04:10:11;;;;;;;27.07;13.90;;;1.50;99.90;;;;;;5064654;28;20832;-58
2023/12/01 04:12:44;;;;;;;27.90;14.40;;;1.50;99.90;;;;;;5066144;28;20436;-58
2023/12/01 04:15:12;;;;;;;21.67;13.40;;;1.50;99.90;;;;;;5060144;28;20167;-58
2023/12/01 04:17:42;;;;;;;25.00;13.13;;;1.60;99.90;;;;;;5057788;28;21012;-59
2023/12/01 04:20:20;;;;;;;25.67;13.87;;;1.50;99.90;;;;;;5062465;28;20464;-57
2023/12/01 04:22:50;;;;;;;24.87;13.10;;;1.50;99.90;;;;;;5065236;28;20456;-58
2023/12/01 04:25:16;;;;;;;20.13;12.03;;;1.50;99.90;;;;;;5059761;28;20426;-58
2023/12/01 04:27:43;;;;;;;23.07;12.57;;;1.60;99.90;;;;;;5064300;28;20922;-58
2023/12/01 04:30:14;;;;;;;22.83;12.23;;;1.50;99.90;;;;;;5062754;28;20462;-59
2023/12/01 04:33:00;;;;;;;24.87;12.80;;;1.50;99.90;;;;;;5061898;28;20542;-58
2023/12/01 04:35:28;;;;;;;20.50;12.10;;;1.50;99.90;;;;;;5059328;28;20516;-57
2023/12/01 04:37:54;;;;;;;19.03;10.97;;;1.50;99.90;;;;;;5064907;28;20436;-58
2023/12/01 04:40:20;;;;;;;20.23;11.63;;;1.50;99.90;;;;;;5064344;28;20417;-58
2023/12/01 04:42:50;;;;;;;22.07;11.40;;;1.50;99.90;;;;;;5059785;28;20540;-57
2023/12/01 04:45:18;;;;;;;19.40;10.53;;;1.50;99.90;;;;;;5066477;28;20179;-58
2023/12/01 04:47:46;;;;;;;19.80;11.33;;;1.50;99.90;;;;;;5065152;28;20425;-59
2023/12/01 04:50:15;;;;;;;22.47;11.60;;;1.50;99.90;;;;;;5064416;28;20454;-58
2023/12/01 04:52:44;;;;;;;25.10;11.23;;;1.50;99.90;;;;;;5060802;28;20484;-58
2023/12/01 04:55:12;;;;;;;22.53;11.00;;;1.50;99.90;;;;;;5063742;28;20775;-58
2023/12/01 04:57:38;;;;;;;20.80;12.00;;;1.60;99.90;;;;;;5056692;28;20429;-58
2023/12/01 05:00:20;;;;;;;20.90;11.67;;;1.50;99.90;;;;;;5055968;28;20957;-57
2023/12/01 05:02:47;;;;;;;20.07;11.47;;;1.50;99.90;;;;;;5056455;28;20458;-56
2023/12/01 05:05:33;;;;;;;21.93;11.57;;;1.50;99.90;;;;;;5061513;28;22200;-58
2023/12/01 05:08:00;;;;;;;22.17;10.10;;;1.50;99.90;;;;;;5057977;28;20454;-60
2023/12/01 05:10:30;;;;;;;22.80;12.63;;;1.50;99.90;;;;;;5060223;28;21160;-59
2023/12/01 05:12:58;;;;;;;20.13;12.13;;;1.50;99.90;;;;;;5054642;28;20452;-60
2023/12/01 05:15:31;;;;;;;23.47;12.23;;;1.50;99.90;;;;;;5059112;28;20431;-60
2023/12/01 05:18:05;;;;;;;25.23;10.90;;;1.60;99.90;;;;;;5061413;28;20455;-60
2023/12/01 05:20:32;;;;;;;21.13;12.23;;;1.60;99.90;;;;;;5063899;28;20452;-59
2023/12/01 05:23:05;;;;;;;24.47;12.50;;;1.60;99.90;;;;;;5061045;28;20543;-59
2023/12/01 05:25:32;;;;;;;23.53;12.00;;;1.60;99.90;;;;;;5061038;28;20435;-59
2023/12/01 05:28:16;;;;;;;19.93;12.73;;;1.60;99.90;;;;;;5058062;28;20463;-58
2023/12/01 05:30:43;;;;;;;18.70;11.60;;;1.60;99.90;;;;;;5051573;28;20475;-58
2023/12/01 05:33:09;;;;;;;22.47;12.53;;;1.60;99.90;;;;;;5063038;28;20501;-59
2023/12/01 05:35:36;;;;;;;22.03;13.07;;;1.60;99.90;;;;;;5060281;28;20785;-60
2023/12/01 05:38:04;;;;;;;23.40;12.97;;;1.60;99.90;;;;;;5061004;28;20205;-59
2023/12/01 05:40:37;;;;;;;24.10;12.93;;;1.60;99.90;;;;;;5057579;28;20437;-59
2023/12/01 05:43:04;;;;;;;23.60;12.20;;;1.60;99.90;;;;;;5049874;28;20451;-58
2023/12/01 05:45:35;;;;;;;24.47;12.80;;;1.60;99.90;;;;;;5051718;28;20444;-56
2023/12/01 05:48:02;;;;;;;23.37;11.67;;;1.70;99.90;;;;;;5050098;28;21007;-57
2023/12/01 05:50:32;;;;;;;20.67;11.27;;;1.60;99.90;;;;;;5050467;28;20463;-57
2023/12/01 05:53:00;;;;;;;18.40;10.47;;;1.60;99.90;;;;;;5056400;28;20460;-57
2023/12/01 05:55:28;;;;;;;25.90;11.17;;;1.60;99.90;;;;;;5069571;28;20404;-59
2023/12/01 05:57:58;;;;;;;24.00;11.70;;;1.60;99.90;;;;;;5063128;28;20428;-60
2023/12/01 06:00:29;;;;;;;15.37;10.07;;;1.60;99.90;;;;;;5064566;28;20416;-59
2023/12/01 06:03:00;;;;;;;19.87;10.37;;;1.60;99.90;;;;;;5065293;28;21030;-59
2023/12/01 06:05:26;;;;;;;19.83;11.27;;;1.60;99.90;;;;;;5064921;28;20464;-59
2023/12/01 06:07:57;;;;;;;18.93;10.77;;;1.60;99.90;;;;;;5068410;28;20417;-59
2023/12/01 06:10:24;;;;;;;24.03;12.43;;;1.60;99.90;;;;;;5064392;28;20466;-59
2023/12/01 06:12:50;;;;;;;23.87;12.43;;;1.60;99.90;;;;;;5065800;28;20458;-58
2023/12/01 06:15:17;;;;;;;27.40;12.23;;;1.50;99.90;;;;;;5068768;28;20961;-59
2023/12/01 06:17:44;;;;;;;19.80;11.60;;;1.50;99.90;;;;;;5065969;28;20428;-60
2023/12/01 06:20:19;;;;;;;18.07;10.80;;;1.60;99.90;;;;;;5065816;28;21090;-59
2023/12/01 06:22:46;;;;;;;24.57;12.40;;;1.50;99.90;;;;;;5063127;28;20470;-60
2023/12/01 06:25:12;;;;;;;22.70;13.03;;;1.60;99.90;;;;;;5065047;28;20420;-59
2023/12/01 06:27:40;;;;;;;21.10;11.37;;;1.60;99.90;;;;;;5061415;28;20471;-58
2023/12/01 06:30:11;;;;;;;22.53;12.30;;;1.60;99.90;;;;;;5064933;28;20429;-59
2023/12/01 06:32:41;;;;;;;18.10;10.60;;;1.50;99.90;;;;;;5068540;28;20456;-59
2023/12/01 06:35:15;;;;;;;19.23;11.27;;;1.60;99.90;;;;;;5061355;28;20422;-59
2023/12/01 06:37:42;;;;;;;18.80;10.90;;;1.60;99.90;;;;;;5058226;28;20494;-60
2023/12/01 06:40:11;;;;;;;20.10;11.30;;;1.50;99.90;;;;;;5065827;28;20420;-59
2023/12/01 06:42:41;;;;;;;18.20;10.43;;;1.60;99.90;;;;;;5066937;28;20432;-59
2023/12/01 06:45:10;;;;;;;14.17;8.97;;;1.60;99.90;;;;;;5065096;28;20461;-59
2023/12/01 06:47:35;;;;;;;16.03;10.30;;;1.50;99.90;;;;;;5062148;28;20444;-59
2023/12/01 06:50:02;;;;;;;15.67;10.70;;;1.50;99.90;;;;;;5068344;28;20419;-59
2023/12/01 06:52:28;;;;;;;16.87;10.00;;;1.50;99.90;;;;;;5065311;28;20698;-59
2023/12/01 06:54:53;;;;;;;18.60;10.03;;;1.50;99.90;;;;;;5067442;28;20441;-59
2023/12/01 06:57:19;;;;;;;18.63;10.70;;;1.50;99.90;;;;;;5065446;28;20181;-59
2023/12/01 06:59:45;;;;;;;19.90;11.30;;;1.50;99.90;;;;;;5065831;28;20183;-59
2023/12/01 07:02:10;;;;;;;17.20;10.27;;;1.50;99.90;;;;;;5062007;28;20345;-60
2023/12/01 07:04:36;;;;;;;19.60;10.63;;;1.50;99.90;;;;;;5067853;28;20185;-59
2023/12/01 07:07:02;;;;;;;16.63;10.77;;;1.50;99.90;;;;;;5067440;28;20232;-59
2023/12/01 07:09:28;;;;;;;19.40;10.90;;;1.50;99.90;;;;;;5065349;28;20607;-59
2023/12/01 07:11:54;;;;;;;18.37;9.97;;;1.50;99.90;;;;;;5066277;28;20536;-59
2023/12/01 07:14:23;;;;;;;17.33;9.93;;;1.50;99.90;;;;;;5064491;28;20425;-59
2023/12/01 07:16:49;;;;;;;16.30;10.03;;;1.50;99.90;;;;;;5064815;28;20440;-58
2023/12/01 07:19:16;;;;;;;59.77;24.13;;;1.50;99.90;;;;;;5053738;28;21292;-59
2023/12/01 07:21:45;;;;;;;41.50;20.50;;;1.50;99.90;;;;;;5062152;28;20444;-59
2023/12/01 07:24:11;;;;;;;25.90;13.60;;;1.50;99.90;;;;;;5067794;28;20452;-59
2023/12/01 07:26:36;;;;;;;18.43;10.83;;;1.50;99.90;;;;;;5060220;28;20432;-60
2023/12/01 07:29:04;;;;;;;20.60;11.47;;;1.50;99.90;;;;;;5067130;28;20171;-61
2023/12/01 07:31:32;;;;;;;16.50;10.60;;;1.50;99.90;;;;;;5062679;28;20243;-59
2023/12/01 07:33:57;;;;;;;18.00;10.10;;;1.50;99.90;;;;;;5064672;28;20514;-59
2023/12/01 07:36:23;;;;;;;19.23;10.70;;;1.50;99.90;;;;;;5059413;28;20527;-59
2023/12/01 07:38:48;;;;;;;16.33;10.37;;;1.50;99.90;;;;;;5062792;28;20707;-59
2023/12/01 07:41:14;;;;;;;19.90;12.00;;;1.50;99.90;;;;;;5063850;28;20183;-60
2023/12/01 07:43:40;;;;;;;21.27;11.67;;;1.50;99.90;;;;;;5062286;28;20202;-59
2023/12/01 07:46:08;;;;;;;22.23;12.40;;;1.50;99.90;;;;;;5063753;28;20174;-59
2023/12/01 07:48:34;;;;;;;20.60;11.23;;;1.50;99.90;;;;;;5061045;28;20467;-59
2023/12/01 07:51:00;;;;;;;20.33;11.87;;;1.50;99.90;;;;;;5063977;28;20837;-60
2023/12/01 07:53:26;;;;;;;19.80;11.20;;;1.50;99.90;;;;;;5066063;28;20946;-60
2023/12/01 07:55:52;;;;;;;18.53;11.30;;;1.50;99.90;;;;;;5065124;28;20418;-59
2023/12/01 07:58:17;;;;;;;21.20;12.40;;;1.50;99.90;;;;;;5059725;28;20597;-61
2023/12/01 08:00:43;;;;;;;29.13;12.10;;;1.50;99.90;;;;;;5061564;28;20636;-59
2023/12/01 08:03:09;;;;;;;23.00;12.30;;;1.50;99.90;;;;;;5058648;28;20602;-59
2023/12/01 08:05:39;;;;;;;18.50;10.70;;;1.50;99.90;;;;;;5064831;28;20178;-59
2023/12/01 08:08:05;;;;;;;23.60;11.97;;;1.50;99.90;;;;;;5060888;28;20186;-59
2023/12/01 08:10:31;;;;;;;20.20;11.80;;;1.50;99.90;;;;;;5061924;28;20540;-59
2023/12/01 08:12:56;;;;;;;22.73;13.00;;;1.50;99.90;;;;;;5054402;28;20998;-58
2023/12/01 08:15:23;;;;;;;22.10;12.00;;;1.50;99.90;;;;;;5062487;28;21022;-58
2023/12/01 08:17:49;;;;;;;22.57;11.87;;;1.50;99.90;;;;;;5062429;28;20184;-58
2023/12/01 08:20:16;;;;;;;22.50;11.80;;;1.60;99.90;;;;;;5064577;28;20505;-59
2023/12/01 08:22:48;;;;;;;21.00;12.17;;;1.60;99.90;;;;;;5062844;28;20451;-59
2023/12/01 08:25:14;;;;;;;22.37;13.87;;;1.60;99.90;;;;;;5063439;28;20975;-60
2023/12/01 08:27:40;;;;;;;35.60;20.73;;;1.60;99.90;;;;;;5054529;28;20417;-59
2023/12/01 08:30:07;;;;;;;32.93;17.07;;;1.60;99.90;;;;;;5062751;28;20401;-59
2023/12/01 08:32:33;;;;;;;30.77;15.13;;;1.60;99.90;;;;;;5063540;28;20206;-59
2023/12/01 08:34:58;;;;;;;28.80;16.57;;;1.60;99.90;;;;;;5061216;28;20501;-59
2023/12/01 08:37:24;;;;;;;28.30;14.10;;;1.60;99.90;;;;;;5065191;28;20188;-60
2023/12/01 08:39:50;;;;;;;24.57;14.17;;;1.60;99.90;;;;;;5063735;28;20181;-58
2023/12/01 08:42:18;;;;;;;25.67;15.40;;;1.60;99.90;;;;;;5063207;28;20277;-60
2023/12/01 08:44:43;;;;;;;28.40;16.17;;;1.60;99.90;;;;;;5062436;28;20519;-59
2023/12/01 08:47:09;;;;;;;24.27;14.67;;;1.60;99.90;;;;;;5062577;28;20413;-60
2023/12/01 08:49:35;;;;;;;22.53;12.40;;;1.70;99.90;;;;;;5060351;28;20182;-59
2023/12/01 08:52:01;;;;;;;35.73;21.70;;;1.60;99.90;;;;;;5063545;28;20547;-59
2023/12/01 08:54:27;;;;;;;34.70;19.53;;;1.70;99.90;;;;;;5066190;28;20806;-59
2023/12/01 08:56:53;;;;;;;37.10;20.70;;;1.70;99.90;;;;;;5065726;28;20447;-59
2023/12/01 08:59:19;;;;;;;42.03;19.93;;;1.70;99.90;;;;;;5066264;28;20717;-58
2023/12/01 09:01:44;;;;;;;31.13;18.53;;;1.70;99.90;;;;;;5063427;28;20511;-59
2023/12/01 09:04:10;;;;;;;30.27;16.23;;;1.70;99.90;;;;;;5063784;28;20202;-59
2023/12/01 09:06:39;;;;;;;29.10;15.57;;;1.70;99.90;;;;;;5066161;28;20213;-60
2023/12/01 09:09:07;;;;;;;26.13;14.50;;;1.60;99.90;;;;;;5060984;28;20593;-59
2023/12/01 09:11:33;;;;;;;32.77;16.40;;;1.60;99.90;;;;;;5066155;28;20471;-58
2023/12/01 09:13:59;;;;;;;31.90;15.60;;;1.60;99.90;;;;;;5059249;28;20444;-60
2023/12/01 09:16:24;;;;;;;25.60;15.17;;;1.60;99.90;;;;;;5063662;28;20185;-59
2023/12/01 09:18:50;;;;;;;24.10;13.50;;;1.70;99.90;;;;;;5067391;28;20175;-60
2023/12/01 09:21:16;;;;;;;29.13;13.43;;;1.70;99.90;;;;;;5058596;28;20175;-59
2023/12/01 09:23:42;;;;;;;18.60;11.73;;;1.70;99.90;;;;;;5067237;28;20439;-60
2023/12/01 09:26:08;;;;;;;22.60;13.07;;;1.70;99.90;;;;;;5064330;28;20515;-59
2023/12/01 09:28:36;;;;;;;21.30;11.70;;;1.70;99.90;;;;;;5065875;28;20195;-58
2023/12/01 09:31:02;;;;;;;21.13;11.93;;;1.70;99.90;;;;;;5065580;28;20198;-59
2023/12/01 09:33:28;;;;;;;20.30;12.53;;;1.80;99.90;;;;;;5064437;28;20494;-59
2023/12/01 09:35:54;;;;;;;23.33;12.53;;;1.80;99.90;;;;;;5066410;28;20452;-59
2023/12/01 09:38:19;;;;;;;18.17;11.60;;;1.80;99.90;;;;;;5070527;28;20167;-59
2023/12/01 09:40:45;;;;;;;23.00;12.57;;;1.80;99.90;;;;;;5062208;28;20409;-60
2023/12/01 09:43:18;;;;;;;21.93;13.50;;;1.80;99.90;;;;;;5062501;28;20203;-60
2023/12/01 09:45:44;;;;;;;22.50;13.90;;;1.80;99.90;;;;;;5064894;28;20173;-59
2023/12/01 09:48:11;;;;;;;18.40;12.13;;;1.80;99.90;;;;;;5064849;28;20465;-60
2023/12/01 09:50:37;;;;;;;19.80;11.27;;;1.90;99.90;;;;;;5069154;28;20555;-60
2023/12/01 09:53:03;;;;;;;20.73;11.37;;;1.80;99.90;;;;;;5061258;28;20535;-59
2023/12/01 09:55:29;;;;;;;17.80;11.30;;;1.80;99.90;;;;;;5065783;28;21228;-59
2023/12/01 09:57:56;;;;;;;16.70;11.13;;;1.80;99.90;;;;;;5066406;28;20986;-60
2023/12/01 10:00:22;;;;;;;21.10;12.80;;;1.80;99.90;;;;;;5064137;28;20594;-60
2023/12/01 10:02:48;;;;;;;23.63;11.80;;;1.80;99.90;;;;;;5066030;28;20428;-59
2023/12/01 10:05:13;;;;;;;19.40;13.20;;;1.80;99.90;;;;;;5067134;28;20178;-61
2023/12/01 10:07:40;;;;;;;25.33;14.50;;;1.80;99.90;;;;;;5064405;28;20482;-60
2023/12/01 10:10:23;;;;;;;23.93;13.40;;;1.80;99.90;;;;;;5059551;28;20810;-59
2023/12/01 10:13:04;;;;;;;23.63;13.60;;;1.80;99.90;;;;;;5062403;28;20840;-59
2023/12/01 10:15:32;;;;;;;22.33;13.40;;;1.80;99.90;;;;;;5062927;28;20415;-60
2023/12/01 10:18:12;;;;;;;21.20;14.03;;;1.80;99.90;;;;;;5062704;28;20439;-59
2023/12/01 10:20:41;;;;;;;20.23;13.87;;;1.80;99.90;;;;;;5059571;28;20488;-59
2023/12/01 10:23:20;;;;;;;24.43;14.13;;;1.80;99.90;;;;;;5066502;28;20439;-60
2023/12/01 10:25:50;;;;;;;26.10;14.53;;;1.80;99.90;;;;;;5065697;28;20470;-59
2023/12/01 10:28:16;;;;;;;27.73;15.33;;;1.80;99.90;;;;;;5061219;28;20507;-59
2023/12/01 10:30:56;;;;;;;22.83;15.57;;;1.80;99.90;;;;;;5066000;28;20451;-60
2023/12/01 10:33:24;;;;;;;26.57;15.23;;;1.80;99.90;;;;;;5064883;28;20883;-59
2023/12/01 10:36:03;;;;;;;30.93;17.50;;;1.80;99.90;;;;;;5062431;28;20930;-60
2023/12/01 10:38:30;;;;;;;26.97;16.27;;;1.80;99.90;;;;;;5061775;28;20444;-58
2023/12/01 10:40:57;;;;;;;37.17;17.90;;;1.80;99.90;;;;;;5058622;28;20437;-59
2023/12/01 10:43:24;;;;;;;23.13;15.20;;;1.80;99.90;;;;;;5060544;28;20428;-59
2023/12/01 10:45:49;;;;;;;24.43;14.90;;;1.80;99.90;;;;;;5061603;28;20416;-59
2023/12/01 10:48:19;;;;;;;32.90;16.97;;;1.80;99.90;;;;;;5059817;28;20845;-59
2023/12/01 10:50:49;;;;;;;26.07;15.63;;;1.80;99.90;;;;;;5064708;28;20688;-59
2023/12/01 10:53:16;;;;;;;37.90;19.77;;;1.80;99.90;;;;;;5077245;28;20472;-60
2023/12/01 10:55:46;;;;;;;31.20;18.27;;;1.80;99.90;;;;;;5064965;28;20427;-59
2023/12/01 10:58:20;;;;;;;25.90;17.33;;;1.80;99.90;;;;;;5063757;28;20432;-60
2023/12/01 11:00:48;;;;;;;19.93;13.93;;;1.80;99.90;;;;;;5064578;28;20483;-59
2023/12/01 11:03:18;;;;;;;23.50;14.77;;;1.80;99.90;;;;;;5064741;28;20446;-59
2023/12/01 11:05:45;;;;;;;20.20;12.03;;;1.90;99.90;;;;;;5064956;28;20478;-59
2023/12/01 11:08:30;;;;;;;17.37;10.50;;;1.80;99.90;;;;;;5061825;28;20610;-59
2023/12/01 11:11:08;;;;;;;13.20;9.27;;;1.80;99.90;;;;;;5066311;28;20463;-59
2023/12/01 11:13:39;;;;;;;12.97;8.80;;;1.80;99.90;;;;;;5066541;28;20474;-61
2023/12/01 11:16:07;;;;;;;14.10;9.03;;;1.80;99.90;;;;;;5060751;28;20409;-59
2023/12/01 11:18:33;;;;;;;11.70;7.90;;;1.80;99.90;;;;;;5066571;28;20471;-59
2023/12/01 11:20:59;;;;;;;13.77;8.70;;;1.80;99.90;;;;;;5064962;28;20455;-59
2023/12/01 11:23:25;;;;;;;9.83;7.80;;;1.80;99.90;;;;;;5067334;28;20248;-60
2023/12/01 11:26:08;;;;;;;11.93;7.57;;;1.80;99.90;;;;;;5067146;28;20603;-59
2023/12/01 11:31:13;;;;;;;12.63;8.13;;;1.80;99.90;;;;;;5059681;28;21145;-58
2023/12/01 11:33:52;;;;;;;14.23;6.13;;;1.80;99.90;;;;;;5061049;28;20478;-60
2023/12/01 11:36:29;;;;;;;10.80;6.00;;;1.70;99.90;;;;;;5067263;28;20524;-59
2023/12/01 11:41:41;;;;;;;6.77;4.97;;;1.70;99.90;;;;;;5060817;28;20432;-59
2023/12/01 11:44:24;;;;;;;4.20;3.67;;;1.80;99.90;;;;;;5068139;28;20977;-60
2023/12/01 11:46:57;;;;;;;6.30;4.90;;;1.70;99.90;;;;;;5067350;28;20178;-59
2023/12/01 11:49:32;;;;;;;4.90;4.40;;;1.80;99.90;;;;;;5060826;28;20446;-59
2023/12/01 11:51:59;;;;;;;4.77;4.00;;;1.80;99.90;;;;;;5062683;28;20571;-58
2023/12/01 11:54:25;;;;;;;6.30;4.90;;;1.80;99.90;;;;;;5065902;28;20429;-58
2023/12/01 11:56:52;;;;;;;8.77;5.40;;;1.80;99.90;;;;;;5065395;28;20477;-59
2023/12/01 11:59:18;;;;;;;12.80;7.17;;;1.80;99.90;;;;;;5063862;28;20171;-59
2023/12/01 12:01:45;;;;;;;9.70;5.53;;;1.80;99.90;;;;;;5062777;28;20431;-61
2023/12/01 12:04:13;;;;;;;5.43;4.70;;;1.80;99.90;;;;;;5057889;28;21017;-58
2023/12/01 12:06:41;;;;;;;6.67;4.57;;;1.80;99.90;;;;;;5059042;28;20437;-59
2023/12/01 12:09:08;;;;;;;4.90;4.40;;;1.80;99.90;;;;;;5061880;28;20419;-59
2023/12/01 12:11:35;;;;;;;5.63;5.10;;;1.80;99.90;;;;;;5058518;28;20889;-56
2023/12/01 12:14:02;;;;;;;4.00;3.60;;;1.80;99.90;;;;;;5060945;28;20437;-58
2023/12/01 12:16:28;;;;;;;4.23;3.30;;;1.80;99.90;;;;;;5061956;28;20427;-58
2023/12/01 12:18:59;;;;;;;4.40;3.67;;;1.80;99.90;;;;;;5060831;28;20410;-57
2023/12/01 12:21:29;;;;;;;6.03;5.13;;;1.80;99.90;;;;;;5057107;28;20525;-58
2023/12/01 12:23:59;;;;;;;2.80;2.60;;;1.80;99.90;;;;;;5055987;28;20471;-58
2023/12/01 12:26:28;;;;;;;2.60;2.40;;;1.80;99.90;;;;;;5058698;28;20424;-58
2023/12/01 12:28:59;;;;;;;2.53;2.33;;;1.80;99.90;;;;;;5059219;28;20413;-59
2023/12/01 12:31:33;;;;;;;2.70;2.10;;;1.80;99.90;;;;;;5058913;28;20953;-59
2023/12/01 12:34:00;;;;;;;3.70;2.80;;;1.80;99.90;;;;;;5059947;28;20852;-58
2023/12/01 12:36:27;;;;;;;2.87;2.60;;;1.70;99.90;;;;;;5058535;28;20506;-58
2023/12/01 12:38:53;;;;;;;4.90;3.53;;;1.80;99.90;;;;;;5061377;28;20405;-59
2023/12/01 12:41:27;;;;;;;3.53;3.13;;;1.80;99.90;;;;;;5060113;28;20420;-60
2023/12/01 12:43:57;;;;;;;3.03;2.77;;;1.70;99.90;;;;;;5058530;28;20718;-58
2023/12/01 12:46:24;;;;;;;3.67;3.23;;;1.70;99.90;;;;;;5056477;28;20439;-58